Time;durP1;ratioP1;P1;durP2;ratioP2;P2;SDS_P1;SDS_P2;PMS_P1;PMS_P2;Temp;Humidity;BMP_temperature;BMP_pressure;BME280_temperature;BME280_humidity;BME280_pressure;Samples;Min_cycle;Max_cycle;Signal;HPM_P1;HPM_P2
2023/11/06 00:01:34;;;;;;;3.53;1.47;;;10.60;99.90;;;;;;4904959;29;20614;-58
2023/11/06 00:04:03;;;;;;;6.40;2.60;;;10.60;99.90;;;;;;4905883;28;20495;-58
2023/11/06 00:06:31;;;;;;;2.53;1.10;;;10.60;99.90;;;;;;4906547;29;20479;-58
2023/11/06 00:08:59;;;;;;;5.40;2.20;;;10.50;99.90;;;;;;4906830;29;21079;-58
2023/11/06 00:11:27;;;;;;;2.77;1.20;;;10.50;99.90;;;;;;4905177;29;20469;-57
2023/11/06 00:13:55;;;;;;;5.43;1.47;;;10.50;99.90;;;;;;4907772;28;20859;-58
2023/11/06 00:16:25;;;;;;;1.80;1.20;;;10.50;99.90;;;;;;4903970;29;20624;-58
2023/11/06 00:18:56;;;;;;;3.90;1.33;;;10.50;99.90;;;;;;4909375;29;20552;-58
2023/11/06 00:21:24;;;;;;;3.53;1.40;;;10.50;99.90;;;;;;4906966;29;21334;-58
2023/11/06 00:23:55;;;;;;;3.27;1.50;;;10.60;99.90;;;;;;4902290;28;21462;-58
2023/11/06 00:26:23;;;;;;;2.70;1.50;;;10.50;99.90;;;;;;4911892;29;20549;-58
2023/11/06 00:28:51;;;;;;;3.70;1.53;;;10.50;99.90;;;;;;4917699;29;21026;-58
2023/11/06 00:31:19;;;;;;;3.53;2.20;;;10.50;99.90;;;;;;4906500;29;20480;-58
2023/11/06 00:33:49;;;;;;;3.97;1.93;;;10.50;99.90;;;;;;4902977;28;21024;-58
2023/11/06 00:36:18;;;;;;;5.03;2.63;;;10.50;99.90;;;;;;4909090;29;20496;-58
2023/11/06 00:38:46;;;;;;;4.13;2.53;;;10.40;99.90;;;;;;4917549;29;20479;-58
2023/11/06 00:41:14;;;;;;;7.80;2.30;;;10.40;99.90;;;;;;4915602;29;20990;-58
2023/11/06 00:43:43;;;;;;;2.80;2.10;;;10.40;99.90;;;;;;4907449;28;21010;-57
2023/11/06 00:46:11;;;;;;;3.77;2.20;;;10.40;99.90;;;;;;4903298;29;20575;-57
2023/11/06 00:48:39;;;;;;;5.10;2.27;;;10.40;99.90;;;;;;4902528;29;21012;-57
2023/11/06 00:51:08;;;;;;;6.73;2.53;;;10.40;99.90;;;;;;4900404;29;20571;-58
2023/11/06 00:53:38;;;;;;;7.90;2.50;;;10.40;99.90;;;;;;4902510;28;20584;-58
2023/11/06 00:56:07;;;;;;;7.23;2.77;;;10.40;99.90;;;;;;4903817;29;20645;-57
2023/11/06 00:58:35;;;;;;;8.47;2.87;;;10.40;99.90;;;;;;4905147;29;20485;-57
2023/11/06 01:01:03;;;;;;;4.90;3.00;;;10.30;99.90;;;;;;4908261;29;20979;-58
2023/11/06 01:03:31;;;;;;;6.10;2.37;;;10.30;99.90;;;;;;4908473;28;20646;-58
2023/11/06 01:06:00;;;;;;;5.10;2.63;;;10.30;99.90;;;;;;4907856;29;22178;-58
2023/11/06 01:08:29;;;;;;;5.03;2.27;;;10.30;99.90;;;;;;4912565;29;20638;-57
2023/11/06 01:10:57;;;;;;;6.23;3.00;;;10.30;99.90;;;;;;4914910;29;20575;-58
2023/11/06 01:13:25;;;;;;;5.87;2.77;;;10.30;99.90;;;;;;4914983;28;20509;-58
2023/11/06 01:15:53;;;;;;;5.10;3.10;;;10.30;99.90;;;;;;4912107;29;20562;-58
2023/11/06 01:18:21;;;;;;;5.73;2.60;;;10.30;99.90;;;;;;4915919;29;20555;-58
2023/11/06 01:20:49;;;;;;;5.57;2.57;;;10.30;99.90;;;;;;4916537;29;20503;-58
2023/11/06 01:23:17;;;;;;;7.43;2.60;;;10.20;99.90;;;;;;4918595;28;20907;-58
2023/11/06 01:25:47;;;;;;;2.90;2.40;;;10.30;99.90;;;;;;4916288;29;20482;-58
2023/11/06 01:28:15;;;;;;;4.10;2.27;;;10.30;99.90;;;;;;4917078;29;20547;-58
2023/11/06 01:30:44;;;;;;;4.90;2.50;;;10.30;99.90;;;;;;4914133;29;20962;-58
2023/11/06 01:33:12;;;;;;;5.83;2.67;;;10.30;99.90;;;;;;4918730;28;21174;-58
2023/11/06 01:35:40;;;;;;;7.43;2.53;;;10.30;99.90;;;;;;4914710;29;20468;-58
2023/11/06 01:38:08;;;;;;;6.30;2.90;;;10.30;99.90;;;;;;4919514;29;20472;-58
2023/11/06 01:40:36;;;;;;;6.27;2.60;;;10.30;99.90;;;;;;4918410;29;20492;-58
2023/11/06 01:43:07;;;;;;;4.97;2.57;;;10.30;99.90;;;;;;4920340;28;20524;-58
2023/11/06 01:45:37;;;;;;;6.53;2.63;;;10.30;99.90;;;;;;4918625;29;20473;-58
2023/11/06 01:48:05;;;;;;;6.13;2.30;;;10.20;99.90;;;;;;4917805;29;20483;-58
2023/11/06 01:50:35;;;;;;;4.90;2.70;;;10.30;99.90;;;;;;4913749;29;20891;-58
2023/11/06 01:53:09;;;;;;;4.60;2.50;;;10.30;99.90;;;;;;4918277;28;20576;-58
2023/11/06 01:55:37;;;;;;;5.77;2.50;;;10.20;99.90;;;;;;4915531;29;20621;-58
2023/11/06 01:58:07;;;;;;;4.03;3.20;;;10.20;99.90;;;;;;4918831;29;20504;-58
2023/11/06 02:00:35;;;;;;;4.77;3.07;;;10.10;99.90;;;;;;4915586;29;20472;-58
2023/11/06 02:03:05;;;;;;;5.13;2.70;;;10.10;99.90;;;;;;4915070;28;20495;-58
2023/11/06 02:05:33;;;;;;;7.30;3.00;;;10.10;99.90;;;;;;4913713;29;20927;-58
2023/11/06 02:08:02;;;;;;;3.97;3.50;;;10.10;99.90;;;;;;4916126;29;20571;-57
2023/11/06 02:10:31;;;;;;;4.10;3.53;;;10.10;99.90;;;;;;4911475;29;21053;-58
2023/11/06 02:12:59;;;;;;;4.50;3.50;;;10.10;99.90;;;;;;4917415;28;21005;-58
2023/11/06 02:15:29;;;;;;;8.30;4.00;;;10.10;99.90;;;;;;4908557;29;20507;-57
2023/11/06 02:17:57;;;;;;;5.10;3.80;;;10.10;99.90;;;;;;4911325;29;20491;-58
2023/11/06 02:20:25;;;;;;;5.07;3.30;;;10.10;99.90;;;;;;4917155;29;20568;-58
2023/11/06 02:23:02;;;;;;;6.13;3.73;;;10.10;99.90;;;;;;4913950;28;20512;-57
2023/11/06 02:25:30;;;;;;;4.67;3.47;;;10.10;99.90;;;;;;4914435;29;20547;-58
2023/11/06 02:27:58;;;;;;;8.07;3.57;;;10.00;99.90;;;;;;4917937;29;20469;-57
2023/11/06 02:30:26;;;;;;;4.10;3.23;;;10.00;99.90;;;;;;4914312;29;20837;-58
2023/11/06 02:32:54;;;;;;;4.13;3.60;;;10.00;99.90;;;;;;4915643;28;20488;-57
2023/11/06 02:35:23;;;;;;;4.33;3.30;;;10.10;99.90;;;;;;4918239;29;20476;-58
2023/11/06 02:37:52;;;;;;;9.00;3.40;;;10.00;99.90;;;;;;4918769;29;20901;-58
2023/11/06 02:40:22;;;;;;;4.70;3.13;;;10.00;99.90;;;;;;4918750;29;20487;-58
2023/11/06 02:42:50;;;;;;;9.07;3.80;;;9.90;99.90;;;;;;4919024;28;20925;-57
2023/11/06 02:45:18;;;;;;;6.27;3.77;;;9.90;99.90;;;;;;4917131;29;20574;-57
2023/11/06 02:47:46;;;;;;;5.07;3.60;;;9.90;99.90;;;;;;4916202;29;20479;-58
2023/11/06 02:50:14;;;;;;;3.80;3.30;;;9.90;99.90;;;;;;4919377;29;20837;-58
2023/11/06 02:52:42;;;;;;;4.33;3.47;;;9.90;99.90;;;;;;4918253;29;20497;-57
2023/11/06 02:55:11;;;;;;;5.67;4.47;;;9.80;99.90;;;;;;4916645;28;20500;-57
2023/11/06 02:57:40;;;;;;;5.03;3.80;;;9.90;99.90;;;;;;4903021;29;20640;-58
2023/11/06 03:00:11;;;;;;;8.20;3.80;;;9.90;99.90;;;;;;4913237;29;20560;-57
2023/11/06 03:02:39;;;;;;;6.67;4.10;;;9.90;99.90;;;;;;4917689;29;20583;-57
2023/11/06 03:05:08;;;;;;;6.47;3.87;;;9.90;99.90;;;;;;4919694;28;20515;-57
2023/11/06 03:07:36;;;;;;;5.77;3.63;;;9.90;99.90;;;;;;4912903;29;20468;-57
2023/11/06 03:10:05;;;;;;;4.77;4.17;;;9.90;99.90;;;;;;4917741;29;20579;-57
2023/11/06 03:12:33;;;;;;;6.50;4.27;;;9.90;99.90;;;;;;4910808;29;20493;-57
2023/11/06 03:15:03;;;;;;;8.63;4.57;;;9.90;99.90;;;;;;4909049;28;20666;-57
2023/11/06 03:17:30;;;;;;;9.37;4.30;;;9.90;99.90;;;;;;4913137;29;20609;-57
2023/11/06 03:19:59;;;;;;;5.00;4.20;;;9.90;99.90;;;;;;4917482;29;20502;-57
2023/11/06 03:22:27;;;;;;;4.30;3.90;;;9.90;99.90;;;;;;4914018;29;20499;-57
2023/11/06 03:24:55;;;;;;;5.40;4.40;;;9.80;99.90;;;;;;4917758;28;21531;-58
2023/11/06 03:27:23;;;;;;;5.63;4.40;;;9.80;99.90;;;;;;4917855;29;20579;-57
2023/11/06 03:29:50;;;;;;;7.23;4.70;;;9.80;99.90;;;;;;4918130;29;20480;-57
2023/11/06 03:32:20;;;;;;;4.20;3.80;;;9.80;99.90;;;;;;4915613;29;20473;-57
2023/11/06 03:34:48;;;;;;;7.00;3.83;;;9.80;99.90;;;;;;4915568;28;20649;-58
2023/11/06 03:37:16;;;;;;;5.50;3.50;;;9.80;99.90;;;;;;4910163;29;20517;-57
2023/11/06 03:39:44;;;;;;;4.93;4.13;;;9.80;99.90;;;;;;4915392;29;20558;-57
2023/11/06 03:42:12;;;;;;;3.80;3.43;;;9.80;99.90;;;;;;4908298;29;20499;-58
2023/11/06 03:44:40;;;;;;;5.63;4.20;;;9.70;99.90;;;;;;4907967;28;21016;-58
2023/11/06 03:47:08;;;;;;;5.90;3.70;;;9.70;99.90;;;;;;4904148;29;20478;-57
2023/11/06 03:49:37;;;;;;;6.60;3.80;;;9.70;99.90;;;;;;4912972;29;20491;-58
2023/11/06 03:52:10;;;;;;;4.40;3.10;;;9.70;99.90;;;;;;4907239;29;20566;-57
2023/11/06 03:54:38;;;;;;;5.37;3.80;;;9.70;99.90;;;;;;4905793;28;20588;-58
2023/11/06 03:57:07;;;;;;;3.87;3.50;;;9.60;99.90;;;;;;4907471;29;20946;-57
2023/11/06 03:59:35;;;;;;;4.17;3.77;;;9.60;99.90;;;;;;4905753;29;20563;-57
2023/11/06 04:02:03;;;;;;;4.93;3.13;;;9.60;99.90;;;;;;4904964;29;20550;-58
2023/11/06 04:04:31;;;;;;;3.43;3.13;;;9.50;99.90;;;;;;4919038;28;20492;-57
2023/11/06 04:07:00;;;;;;;5.10;3.80;;;9.50;99.90;;;;;;4913450;29;20609;-57
2023/11/06 04:09:28;;;;;;;5.43;3.53;;;9.50;99.90;;;;;;4919199;29;20477;-58
2023/11/06 04:11:56;;;;;;;5.43;3.83;;;9.40;99.90;;;;;;4917832;29;20490;-57
2023/11/06 04:14:24;;;;;;;4.60;3.50;;;9.40;99.90;;;;;;4916004;28;20498;-58
2023/11/06 04:16:52;;;;;;;4.27;3.50;;;9.40;99.90;;;;;;4907907;29;20484;-57
2023/11/06 04:19:20;;;;;;;4.10;3.70;;;9.40;99.90;;;;;;4912068;29;20595;-58
2023/11/06 04:21:48;;;;;;;4.83;3.60;;;9.40;99.90;;;;;;4919606;29;21007;-58
2023/11/06 04:24:18;;;;;;;6.17;4.27;;;9.40;99.90;;;;;;4915734;28;20528;-58
2023/11/06 04:26:45;;;;;;;5.03;3.90;;;9.30;99.90;;;;;;4918474;29;20954;-57
2023/11/06 04:29:14;;;;;;;7.07;4.30;;;9.30;99.90;;;;;;4913195;29;20599;-58
2023/11/06 04:31:42;;;;;;;7.93;4.90;;;9.30;99.90;;;;;;4916435;29;20474;-58
2023/11/06 04:34:10;;;;;;;4.50;4.10;;;9.30;99.90;;;;;;4917528;28;20523;-57
2023/11/06 04:36:37;;;;;;;6.30;5.70;;;9.30;99.90;;;;;;4916971;29;20491;-57
2023/11/06 04:39:08;;;;;;;4.67;4.13;;;9.30;99.90;;;;;;4916234;29;20516;-58
2023/11/06 04:41:38;;;;;;;6.13;4.40;;;9.30;99.90;;;;;;4917049;29;20568;-58
2023/11/06 04:44:06;;;;;;;5.23;4.57;;;9.30;99.90;;;;;;4913506;28;21225;-58
2023/11/06 04:46:34;;;;;;;5.30;4.20;;;9.30;99.90;;;;;;4919757;29;20498;-57
2023/11/06 04:49:02;;;;;;;6.60;5.00;;;9.20;99.90;;;;;;4919099;29;20598;-58
2023/11/06 04:51:30;;;;;;;6.23;5.30;;;9.30;99.90;;;;;;4920727;29;20959;-57
2023/11/06 04:53:58;;;;;;;6.80;5.07;;;9.30;99.90;;;;;;4918338;28;20575;-56
2023/11/06 04:56:26;;;;;;;5.80;5.20;;;9.20;99.90;;;;;;4918997;29;20484;-57
2023/11/06 04:58:55;;;;;;;6.17;4.90;;;9.20;99.90;;;;;;4917692;29;20468;-58
2023/11/06 05:01:23;;;;;;;5.70;4.90;;;9.20;99.90;;;;;;4918390;29;20522;-57
2023/11/06 05:03:52;;;;;;;5.00;4.60;;;9.10;99.90;;;;;;4910560;28;21200;-58
2023/11/06 05:06:20;;;;;;;6.90;5.63;;;9.20;99.90;;;;;;4918799;29;20536;-58
2023/11/06 05:08:48;;;;;;;9.67;5.17;;;9.20;99.90;;;;;;4919982;29;20475;-57
2023/11/06 05:11:16;;;;;;;5.77;5.17;;;9.20;99.90;;;;;;4918255;29;20489;-58
2023/11/06 05:13:44;;;;;;;6.20;5.50;;;9.20;99.90;;;;;;4917812;28;20495;-57
2023/11/06 05:16:13;;;;;;;5.40;4.93;;;9.10;99.90;;;;;;4919362;29;20599;-56
2023/11/06 05:18:41;;;;;;;6.63;5.67;;;9.10;99.90;;;;;;4917054;29;20925;-58
2023/11/06 05:21:10;;;;;;;5.77;5.27;;;9.20;99.90;;;;;;4918270;29;20555;-57
2023/11/06 05:23:38;;;;;;;7.27;5.50;;;9.10;99.90;;;;;;4916702;28;20618;-58
2023/11/06 05:26:08;;;;;;;6.47;5.27;;;9.10;99.90;;;;;;4916899;29;20468;-57
2023/11/06 05:28:36;;;;;;;6.83;5.90;;;9.10;99.90;;;;;;4918239;29;20873;-57
2023/11/06 05:31:04;;;;;;;6.20;5.70;;;9.10;99.90;;;;;;4921081;29;20563;-58
2023/11/06 05:33:33;;;;;;;7.80;5.87;;;9.10;99.90;;;;;;4913982;28;20491;-58
2023/11/06 05:36:01;;;;;;;7.83;6.23;;;9.10;99.90;;;;;;4920857;29;20501;-58
2023/11/06 05:38:29;;;;;;;7.03;6.33;;;9.10;99.90;;;;;;4917725;29;20515;-58
2023/11/06 05:40:57;;;;;;;7.83;6.50;;;9.10;99.90;;;;;;4917917;29;20543;-57
2023/11/06 05:43:25;;;;;;;8.27;6.57;;;9.20;99.90;;;;;;4918407;28;20492;-57
2023/11/06 05:45:53;;;;;;;7.60;6.90;;;9.20;99.90;;;;;;4918589;29;20599;-56
2023/11/06 05:48:21;;;;;;;10.63;7.00;;;9.20;99.90;;;;;;4917554;29;21017;-58
2023/11/06 05:50:51;;;;;;;7.43;6.63;;;9.20;99.90;;;;;;4920990;29;20480;-57
2023/11/06 05:53:19;;;;;;;7.97;7.17;;;9.20;99.90;;;;;;4917732;28;20576;-58
2023/11/06 05:55:47;;;;;;;7.57;6.70;;;9.20;99.90;;;;;;4919147;29;20523;-58
2023/11/06 05:58:16;;;;;;;8.97;7.40;;;9.20;99.90;;;;;;4916238;29;21481;-58
2023/11/06 06:00:45;;;;;;;8.37;7.13;;;9.20;99.90;;;;;;4916792;29;20489;-59
2023/11/06 06:03:14;;;;;;;7.80;7.03;;;9.20;99.90;;;;;;4916154;28;20503;-57
2023/11/06 06:05:43;;;;;;;7.17;6.53;;;9.20;99.90;;;;;;4916155;29;20947;-57
2023/11/06 06:08:15;;;;;;;10.57;7.87;;;9.30;99.90;;;;;;4919569;29;20964;-57
2023/11/06 06:10:43;;;;;;;7.73;6.83;;;9.30;99.90;;;;;;4918101;29;20518;-58
2023/11/06 06:13:11;;;;;;;8.67;7.27;;;9.30;99.90;;;;;;4913506;28;20518;-57
2023/11/06 06:15:39;;;;;;;8.00;7.20;;;9.30;99.90;;;;;;4916370;29;20559;-57
2023/11/06 06:18:07;;;;;;;10.13;7.77;;;9.30;99.90;;;;;;4908647;29;20632;-57
2023/11/06 06:20:35;;;;;;;8.23;7.17;;;9.30;99.90;;;;;;4909549;29;20481;-58
2023/11/06 06:23:03;;;;;;;9.67;7.50;;;9.30;99.90;;;;;;4918183;28;20558;-58
2023/11/06 06:25:33;;;;;;;8.40;7.30;;;9.30;99.90;;;;;;4920604;29;20551;-57
2023/11/06 06:28:00;;;;;;;13.90;8.10;;;9.40;99.90;;;;;;4921905;29;20851;-58
2023/11/06 06:30:29;;;;;;;10.87;7.97;;;9.40;99.90;;;;;;4916590;29;20476;-57
2023/11/06 06:32:57;;;;;;;7.87;7.07;;;9.30;99.90;;;;;;4920696;28;20655;-58
2023/11/06 06:35:25;;;;;;;11.03;7.10;;;9.30;99.90;;;;;;4907097;29;21270;-57
2023/11/06 06:37:53;;;;;;;10.40;7.50;;;9.40;99.90;;;;;;4906250;29;20480;-57
2023/11/06 06:40:22;;;;;;;7.73;6.70;;;9.40;99.90;;;;;;4883239;29;20802;-57
2023/11/06 06:42:51;;;;;;;11.47;7.57;;;9.50;99.90;;;;;;4904846;28;20661;-57
2023/11/06 06:45:19;;;;;;;8.40;7.00;;;9.50;99.90;;;;;;4896542;29;20721;-57
2023/11/06 06:47:47;;;;;;;10.70;6.90;;;9.50;99.90;;;;;;4898986;29;20479;-56
2023/11/06 06:50:15;;;;;;;9.17;6.60;;;9.50;99.90;;;;;;4910362;29;20851;-57
2023/11/06 06:52:43;;;;;;;7.80;7.10;;;9.50;99.90;;;;;;4907703;29;20480;-57
2023/11/06 06:55:11;;;;;;;8.83;7.43;;;9.50;99.90;;;;;;4914040;28;20587;-57
2023/11/06 06:57:39;;;;;;;7.53;6.83;;;9.50;99.90;;;;;;4896631;29;20896;-57
2023/11/06 07:00:12;;;;;;;9.00;7.43;;;9.50;99.90;;;;;;4909060;29;20538;-57
2023/11/06 07:02:41;;;;;;;7.27;6.47;;;9.60;99.90;;;;;;4911885;29;20866;-57
2023/11/06 07:05:10;;;;;;;7.47;6.77;;;9.60;99.90;;;;;;4914452;28;20623;-56
2023/11/06 07:07:38;;;;;;;7.53;6.37;;;9.60;99.90;;;;;;4905184;29;20606;-57
2023/11/06 07:10:08;;;;;;;6.80;6.10;;;9.60;99.90;;;;;;4892806;29;20521;-58
2023/11/06 07:12:36;;;;;;;8.33;6.70;;;9.60;99.90;;;;;;4882439;28;20952;-57
2023/11/06 07:15:06;;;;;;;6.00;5.50;;;9.70;99.90;;;;;;4882257;28;21018;-57
2023/11/06 07:17:35;;;;;;;7.00;6.30;;;9.70;99.90;;;;;;4876654;29;20652;-57
2023/11/06 07:20:04;;;;;;;6.93;6.23;;;9.70;99.90;;;;;;4870374;29;21992;-56
2023/11/06 07:22:32;;;;;;;8.60;6.40;;;9.70;99.90;;;;;;4897230;29;20475;-59
2023/11/06 07:25:01;;;;;;;7.07;6.10;;;9.80;99.90;;;;;;4890261;28;20499;-60
2023/11/06 07:27:29;;;;;;;9.70;6.30;;;9.80;99.90;;;;;;4907309;29;20627;-59
2023/11/06 07:29:57;;;;;;;6.63;6.00;;;9.80;99.90;;;;;;4913234;29;20482;-59
2023/11/06 07:32:25;;;;;;;8.07;6.67;;;9.90;99.90;;;;;;4910755;29;20477;-59
2023/11/06 07:34:55;;;;;;;6.80;6.20;;;9.90;99.90;;;;;;4909203;28;20493;-59
2023/11/06 07:37:23;;;;;;;7.47;6.03;;;9.90;99.90;;;;;;4913760;29;20500;-58
2023/11/06 07:39:52;;;;;;;6.83;6.20;;;9.90;99.90;;;;;;4913368;29;20961;-59
2023/11/06 07:42:20;;;;;;;7.13;6.43;;;10.00;99.90;;;;;;4909357;29;21913;-59
2023/11/06 07:44:47;;;;;;;9.00;6.87;;;10.00;99.90;;;;;;4913886;28;20583;-59
2023/11/06 07:47:15;;;;;;;7.43;6.73;;;10.10;99.90;;;;;;4906784;29;20830;-59
2023/11/06 07:49:43;;;;;;;7.70;7.00;;;10.10;99.90;;;;;;4900461;29;20710;-59
2023/11/06 07:52:13;;;;;;;8.67;7.00;;;10.10;99.90;;;;;;4907960;29;20479;-59
2023/11/06 07:54:41;;;;;;;7.53;6.90;;;10.10;99.90;;;;;;4912655;28;20895;-59
2023/11/06 07:57:10;;;;;;;8.47;7.33;;;10.10;99.90;;;;;;4914917;29;20551;-59
2023/11/06 07:59:40;;;;;;;11.20;7.20;;;10.00;99.90;;;;;;4909748;29;20499;-59
2023/11/06 08:02:10;;;;;;;8.87;7.13;;;10.10;99.90;;;;;;4912006;29;20884;-61
2023/11/06 08:04:39;;;;;;;8.03;7.13;;;10.10;99.90;;;;;;4903178;28;20524;-61
2023/11/06 08:07:07;;;;;;;10.83;7.60;;;10.10;99.90;;;;;;4906498;29;20555;-61
2023/11/06 08:09:39;;;;;;;9.87;7.90;;;10.10;99.90;;;;;;4908787;29;20557;-61
2023/11/06 08:12:11;;;;;;;7.73;7.03;;;10.20;99.90;;;;;;4909471;29;20558;-61
2023/11/06 08:14:39;;;;;;;7.97;7.20;;;10.30;99.90;;;;;;4907660;28;20856;-59
2023/11/06 08:17:07;;;;;;;9.50;7.10;;;10.30;99.90;;;;;;4906071;29;20499;-59
2023/11/06 08:19:40;;;;;;;8.00;7.07;;;10.30;99.90;;;;;;4910799;29;20539;-58
2023/11/06 08:22:09;;;;;;;8.47;7.60;;;10.30;99.90;;;;;;4911970;29;20634;-58
2023/11/06 08:24:39;;;;;;;8.67;6.87;;;10.30;99.90;;;;;;4909625;28;20503;-58
2023/11/06 08:27:08;;;;;;;7.17;6.50;;;10.30;99.90;;;;;;4911378;29;20480;-59
2023/11/06 08:29:41;;;;;;;7.23;6.53;;;10.40;99.90;;;;;;4910597;29;20598;-59
2023/11/06 08:32:11;;;;;;;8.40;7.50;;;10.30;99.90;;;;;;4914981;29;20572;-58
2023/11/06 08:34:41;;;;;;;8.90;7.47;;;10.40;99.90;;;;;;4908368;28;20488;-59
2023/11/06 08:37:09;;;;;;;8.17;7.47;;;10.40;99.90;;;;;;4907120;29;20479;-58
2023/11/06 08:39:43;;;;;;;8.20;7.40;;;10.40;99.90;;;;;;4912919;29;20472;-58
2023/11/06 08:42:12;;;;;;;8.50;7.63;;;10.50;99.90;;;;;;4913598;29;20549;-59
2023/11/06 08:44:42;;;;;;;8.27;7.43;;;10.50;99.90;;;;;;4901373;28;20508;-59
2023/11/06 08:47:10;;;;;;;10.20;7.10;;;10.50;99.90;;;;;;4910354;29;20547;-58
2023/11/06 08:49:39;;;;;;;8.53;7.60;;;10.50;99.90;;;;;;4904581;29;20929;-58
2023/11/06 08:52:07;;;;;;;9.77;7.30;;;10.50;99.90;;;;;;4909188;29;20938;-59
2023/11/06 08:54:35;;;;;;;8.80;7.90;;;10.50;99.90;;;;;;4915364;28;20536;-59
2023/11/06 08:57:06;;;;;;;7.13;6.43;;;10.50;99.90;;;;;;4910170;29;20558;-59
2023/11/06 08:59:34;;;;;;;8.63;7.47;;;10.50;99.90;;;;;;4904579;29;20864;-59
2023/11/06 09:02:02;;;;;;;10.73;6.93;;;10.60;99.90;;;;;;4909293;29;20703;-57
2023/11/06 09:04:30;;;;;;;7.73;6.93;;;10.60;99.90;;;;;;4909809;28;20511;-58
2023/11/06 09:06:59;;;;;;;7.47;6.77;;;10.60;99.90;;;;;;4913693;29;20487;-57
2023/11/06 09:09:27;;;;;;;8.50;6.60;;;10.60;99.90;;;;;;4904444;29;20486;-57
2023/11/06 09:11:57;;;;;;;7.33;6.63;;;10.60;99.90;;;;;;4908414;29;20858;-58
2023/11/06 09:14:26;;;;;;;8.87;6.87;;;10.70;99.90;;;;;;4909799;28;20587;-57
2023/11/06 09:16:54;;;;;;;7.83;7.00;;;10.70;99.90;;;;;;4914903;29;20484;-57
2023/11/06 09:19:22;;;;;;;7.33;6.60;;;10.70;99.90;;;;;;4904826;29;20476;-57
2023/11/06 09:21:50;;;;;;;9.93;7.07;;;10.70;99.90;;;;;;4916209;29;20772;-58
2023/11/06 09:24:18;;;;;;;7.90;6.83;;;10.70;99.90;;;;;;4906574;28;20956;-58
2023/11/06 09:26:47;;;;;;;7.20;6.53;;;10.70;99.90;;;;;;4907119;29;20607;-57
2023/11/06 09:29:15;;;;;;;6.80;6.20;;;10.70;99.90;;;;;;4905384;29;20938;-58
2023/11/06 09:31:45;;;;;;;7.47;6.63;;;10.70;99.90;;;;;;4915800;29;20551;-58
2023/11/06 09:34:13;;;;;;;8.83;6.53;;;10.70;99.90;;;;;;4913953;28;20587;-58
2023/11/06 09:36:41;;;;;;;8.43;6.60;;;10.70;99.90;;;;;;4912314;29;21445;-58
2023/11/06 09:39:12;;;;;;;9.40;6.83;;;10.70;99.90;;;;;;4908059;29;20563;-58
2023/11/06 09:41:40;;;;;;;6.43;5.77;;;10.70;99.90;;;;;;4917363;29;20545;-58
2023/11/06 09:44:08;;;;;;;8.57;6.40;;;10.70;99.90;;;;;;4909295;28;20651;-58
2023/11/06 09:46:37;;;;;;;6.43;5.83;;;10.80;99.90;;;;;;4913904;29;20913;-58
2023/11/06 09:49:14;;;;;;;7.13;6.40;;;10.80;99.90;;;;;;4912160;29;20484;-58
2023/11/06 09:51:44;;;;;;;7.00;6.30;;;10.90;99.90;;;;;;4914938;29;20899;-61
2023/11/06 09:54:12;;;;;;;8.37;5.80;;;10.90;99.90;;;;;;4911547;28;20583;-61
2023/11/06 09:56:45;;;;;;;9.57;5.63;;;10.90;99.90;;;;;;4915869;29;20598;-61
2023/11/06 09:59:13;;;;;;;7.53;6.27;;;10.90;99.90;;;;;;4910230;29;20480;-61
2023/11/06 10:01:41;;;;;;;7.33;6.43;;;10.90;99.90;;;;;;4916292;29;20487;-62
2023/11/06 10:04:11;;;;;;;5.73;5.20;;;11.00;99.90;;;;;;4914647;28;20575;-60
2023/11/06 10:06:39;;;;;;;6.47;5.80;;;11.00;99.90;;;;;;4912283;29;20500;-59
2023/11/06 10:09:21;;;;;;;6.13;5.53;;;11.00;99.90;;;;;;4916745;29;20512;-61
2023/11/06 10:11:50;;;;;;;6.80;5.50;;;11.00;99.90;;;;;;4917247;29;21163;-61
2023/11/06 10:14:18;;;;;;;7.07;5.73;;;11.00;99.90;;;;;;4911889;28;21021;-60
2023/11/06 10:16:46;;;;;;;7.37;5.50;;;11.00;99.90;;;;;;4915348;29;20511;-61
2023/11/06 10:19:20;;;;;;;6.23;5.53;;;11.00;99.90;;;;;;4915684;29;20476;-60
2023/11/06 10:21:48;;;;;;;8.20;6.07;;;11.00;99.90;;;;;;4915556;29;20484;-60
2023/11/06 10:24:16;;;;;;;11.97;5.30;;;11.10;99.90;;;;;;4914138;28;20526;-63
2023/11/06 10:26:44;;;;;;;10.30;6.27;;;11.10;99.90;;;;;;4914356;29;20551;-62
2023/11/06 10:29:13;;;;;;;6.13;5.53;;;11.10;99.90;;;;;;4915554;29;20480;-61
2023/11/06 10:31:44;;;;;;;8.33;5.77;;;11.10;99.90;;;;;;4916136;29;20484;-62
2023/11/06 10:34:27;;;;;;;6.47;5.20;;;11.10;99.90;;;;;;4908898;28;20518;-63
2023/11/06 10:37:09;;;;;;;9.90;5.50;;;11.20;99.90;;;;;;4913648;29;20464;-63
2023/11/06 10:39:40;;;;;;;7.07;4.67;;;11.30;99.90;;;;;;4916140;29;20618;-63
2023/11/06 10:42:10;;;;;;;8.00;4.77;;;11.30;99.90;;;;;;4909311;29;20475;-61
2023/11/06 10:44:39;;;;;;;5.73;4.47;;;11.30;99.90;;;;;;4912930;28;20984;-59
2023/11/06 10:47:08;;;;;;;5.97;4.73;;;11.30;99.90;;;;;;4913092;29;20567;-58
2023/11/06 10:49:44;;;;;;;5.43;4.93;;;11.30;99.90;;;;;;4908969;29;20487;-61
2023/11/06 10:52:12;;;;;;;8.17;4.67;;;11.30;99.90;;;;;;4910934;29;20651;-61
2023/11/06 10:54:42;;;;;;;7.30;4.17;;;11.40;99.90;;;;;;4910334;28;20499;-58
2023/11/06 10:57:14;;;;;;;6.27;4.40;;;11.40;99.90;;;;;;4908893;29;20822;-58
2023/11/06 10:59:43;;;;;;;6.30;4.20;;;11.40;99.90;;;;;;4911142;29;20477;-59
2023/11/06 11:02:35;;;;;;;5.10;4.60;;;11.40;99.90;;;;;;4910440;29;20487;-62
2023/11/06 11:05:06;;;;;;;6.33;4.43;;;11.40;99.90;;;;;;4918254;28;20489;-62
2023/11/06 11:07:36;;;;;;;4.83;4.33;;;11.40;99.90;;;;;;4913359;29;20581;-63
2023/11/06 11:10:07;;;;;;;4.50;4.00;;;11.40;99.90;;;;;;4910383;28;20531;-62
2023/11/06 11:12:35;;;;;;;9.63;3.87;;;11.40;99.90;;;;;;4903884;29;20468;-61
2023/11/06 11:15:05;;;;;;;7.40;4.30;;;11.50;99.90;;;;;;4912320;28;20485;-61
2023/11/06 11:17:33;;;;;;;5.00;3.67;;;11.50;99.90;;;;;;4909704;29;20574;-62
2023/11/06 11:20:07;;;;;;;3.97;3.10;;;11.50;99.90;;;;;;4906658;29;20473;-61
2023/11/06 11:23:10;;;;;;;3.67;3.13;;;11.50;99.90;;;;;;4913487;29;20573;-60
2023/11/06 11:25:55;;;;;;;3.93;2.80;;;11.40;99.90;;;;;;4912606;29;21088;-61
2023/11/06 11:28:24;;;;;;;3.57;3.27;;;11.40;99.90;;;;;;4909394;29;20476;-60
2023/11/06 11:30:56;;;;;;;5.00;3.23;;;11.40;99.90;;;;;;4909323;29;20543;-60
2023/11/06 11:33:53;;;;;;;4.40;2.57;;;11.40;99.90;;;;;;4915496;28;21013;-61
2023/11/06 11:36:33;;;;;;;6.33;2.80;;;11.40;99.90;;;;;;4919670;29;20466;-61
2023/11/06 11:39:04;;;;;;;3.10;2.47;;;11.40;99.90;;;;;;4914160;29;20483;-61
2023/11/06 11:41:32;;;;;;;2.83;2.33;;;11.40;99.90;;;;;;4910000;29;20608;-62
2023/11/06 11:44:05;;;;;;;4.47;2.57;;;11.40;99.90;;;;;;4902951;28;20497;-60
2023/11/06 11:46:51;;;;;;;4.13;2.00;;;11.40;99.90;;;;;;4907194;29;20488;-60
2023/11/06 11:49:43;;;;;;;3.27;2.37;;;11.40;99.90;;;;;;4911440;29;20872;-60
2023/11/06 11:52:15;;;;;;;4.33;2.20;;;11.30;99.90;;;;;;4914530;29;20476;-59
2023/11/06 11:54:45;;;;;;;3.03;2.30;;;11.30;99.90;;;;;;4912091;28;20498;-61
2023/11/06 11:57:13;;;;;;;3.93;2.40;;;11.30;99.90;;;;;;4914405;29;20472;-61
2023/11/06 11:59:43;;;;;;;3.97;2.60;;;11.20;99.90;;;;;;4911520;29;20954;-60
2023/11/06 12:02:26;;;;;;;2.43;2.20;;;11.20;99.90;;;;;;4910609;29;20556;-60
2023/11/06 12:04:59;;;;;;;6.17;2.70;;;11.20;99.90;;;;;;4907456;28;20566;-59
2023/11/06 12:07:31;;;;;;;4.27;2.50;;;11.20;99.90;;;;;;4916218;29;20507;-60
2023/11/06 12:10:01;;;;;;;4.10;2.10;;;11.20;99.90;;;;;;4913772;29;20530;-59
2023/11/06 12:12:31;;;;;;;4.80;2.60;;;11.20;99.90;;;;;;4908497;29;20649;-59
2023/11/06 12:15:02;;;;;;;4.80;2.43;;;11.20;99.90;;;;;;4905125;28;20499;-59
2023/11/06 12:17:33;;;;;;;3.97;2.40;;;11.20;99.90;;;;;;4907569;29;20582;-59
2023/11/06 12:20:03;;;;;;;6.80;2.20;;;11.20;99.90;;;;;;4907121;29;20771;-59
2023/11/06 12:22:33;;;;;;;3.63;2.37;;;11.30;99.90;;;;;;4905733;29;20482;-59
2023/11/06 12:25:01;;;;;;;4.50;2.20;;;11.30;99.90;;;;;;4909885;28;20538;-60
2023/11/06 12:27:34;;;;;;;3.80;2.60;;;11.20;99.90;;;;;;4907957;29;20591;-59
2023/11/06 12:30:06;;;;;;;4.80;2.10;;;11.30;99.90;;;;;;4906235;29;20480;-59
2023/11/06 12:32:36;;;;;;;3.80;2.30;;;11.30;99.90;;;;;;4907753;29;20475;-59
2023/11/06 12:35:11;;;;;;;4.20;2.43;;;11.30;99.90;;;;;;4909441;28;20499;-59
2023/11/06 12:37:53;;;;;;;4.27;2.33;;;11.30;99.90;;;;;;4907717;29;20554;-59
2023/11/06 12:40:24;;;;;;;3.70;2.17;;;11.40;99.90;;;;;;4909352;29;20476;-60
2023/11/06 12:42:53;;;;;;;7.40;2.93;;;11.40;99.90;;;;;;4907152;28;20579;-59
2023/11/06 12:45:39;;;;;;;4.80;2.87;;;11.40;99.90;;;;;;4907601;29;20575;-59
2023/11/06 12:48:23;;;;;;;7.13;2.67;;;11.50;99.90;;;;;;4902052;29;20491;-59
2023/11/06 12:50:59;;;;;;;6.30;2.70;;;11.50;99.90;;;;;;4911704;29;20572;-60
2023/11/06 12:53:29;;;;;;;5.30;2.63;;;11.50;99.90;;;;;;4912359;28;20488;-59
2023/11/06 12:55:57;;;;;;;4.47;2.60;;;11.50;99.90;;;;;;4917148;29;20476;-59
2023/11/06 12:58:25;;;;;;;3.03;2.47;;;11.50;99.90;;;;;;4916471;29;20542;-62
2023/11/06 13:00:56;;;;;;;6.37;2.60;;;11.70;99.90;;;;;;4913360;29;20883;-61
2023/11/06 13:03:25;;;;;;;3.43;2.17;;;12.10;99.90;;;;;;4918128;28;20583;-61